createdAt,value
2023-02-13T00:01:22.762Z,11.57
2023-02-13T00:03:48.626Z,12.55
2023-02-13T00:06:14.471Z,12.95
2023-02-13T00:08:40.335Z,13.18
2023-02-13T00:11:06.158Z,10.23
2023-02-13T00:13:34.604Z,11.82
2023-02-13T00:16:02.900Z,11.95
2023-02-13T00:18:29.963Z,12.63
2023-02-13T00:20:59.316Z,10.20
2023-02-13T00:23:25.401Z,10.73
2023-02-13T00:25:51.220Z,8.88
2023-02-13T00:28:17.055Z,9.75
2023-02-13T00:30:42.938Z,11.60
2023-02-13T00:33:08.714Z,10.73
2023-02-13T00:35:35.296Z,10.15
2023-02-13T00:38:01.130Z,8.93
2023-02-13T00:40:26.926Z,10.82
2023-02-13T00:42:52.715Z,10.32
2023-02-13T00:45:18.569Z,11.68
2023-02-13T00:47:44.404Z,12.60
2023-02-13T00:50:10.349Z,14.00
2023-02-13T00:52:36.155Z,14.70
2023-02-13T00:55:02.007Z,14.60
2023-02-13T00:57:28.606Z,17.42
2023-02-13T00:59:54.371Z,17.60
2023-02-13T01:02:20.182Z,15.63
2023-02-13T01:04:46.059Z,15.00
2023-02-13T01:07:11.852Z,15.65
2023-02-13T01:09:37.605Z,15.88
2023-02-13T01:12:03.473Z,15.27
2023-02-13T01:14:29.698Z,17.27
2023-02-13T01:16:56.052Z,17.30
2023-02-13T01:19:22.244Z,14.32
2023-02-13T01:21:48.427Z,14.80
2023-02-13T01:24:14.284Z,15.07
2023-02-13T01:26:40.241Z,13.18
2023-02-13T01:29:06.213Z,11.65
2023-02-13T01:31:32.195Z,10.57
2023-02-13T01:33:59.162Z,12.55
2023-02-13T01:36:25.918Z,10.27
2023-02-13T01:38:53.559Z,10.43
2023-02-13T01:41:19.720Z,9.45
2023-02-13T01:43:51.078Z,10.25
2023-02-13T01:46:38.820Z,9.85
2023-02-13T01:49:20.141Z,9.15
2023-02-13T01:51:50.371Z,9.32
2023-02-13T01:54:30.200Z,7.75
2023-02-13T01:57:02.640Z,8.30
2023-02-13T01:59:33.482Z,8.25
2023-02-13T02:02:00.531Z,9.63
2023-02-13T02:04:31.421Z,7.03
2023-02-13T02:07:01.891Z,9.02
2023-02-13T02:09:31.989Z,9.30
2023-02-13T02:12:21.805Z,10.38
2023-02-13T02:14:48.917Z,9.75
2023-02-13T02:17:14.782Z,10.38
2023-02-13T02:20:08.393Z,11.30
2023-02-13T02:22:45.991Z,9.88
2023-02-13T02:25:39.050Z,10.05
2023-02-13T02:28:30.769Z,11.07
2023-02-13T02:31:08.614Z,10.75
2023-02-13T02:33:58.890Z,13.10
2023-02-13T02:36:35.549Z,11.50
2023-02-13T02:39:32.175Z,11.32
2023-02-13T02:42:17.926Z,11.15
2023-02-13T02:45:02.038Z,11.93
2023-02-13T02:47:56.686Z,11.85
2023-02-13T02:50:46.867Z,11.48
2023-02-13T02:53:30.757Z,11.27
2023-02-13T02:56:10.120Z,11.45
2023-02-13T02:59:09.755Z,11.88
2023-02-13T03:02:09.358Z,13.00
2023-02-13T03:04:58.278Z,14.00
2023-02-13T03:07:24.635Z,12.32
2023-02-13T03:10:17.830Z,13.48
2023-02-13T03:13:09.461Z,11.63
2023-02-13T03:15:58.611Z,14.23
2023-02-13T03:18:43.505Z,11.10
2023-02-13T03:21:35.939Z,13.27
2023-02-13T03:24:10.930Z,11.57
2023-02-13T03:27:14.265Z,14.90
2023-02-13T03:30:06.879Z,14.00
2023-02-13T03:32:38.155Z,20.65
2023-02-13T03:35:38.242Z,15.10
2023-02-13T03:38:13.634Z,20.45
2023-02-13T03:41:09.921Z,17.38
2023-02-13T03:43:49.186Z,15.13
2023-02-13T03:46:18.258Z,16.98
2023-02-13T03:49:04.246Z,17.92
2023-02-13T03:51:59.775Z,18.27
2023-02-13T03:55:00.940Z,26.00
2023-02-13T03:57:48.224Z,16.88
2023-02-13T04:00:15.542Z,22.15
2023-02-13T04:02:53.507Z,20.65
2023-02-13T04:05:25.974Z,26.60
2023-02-13T04:07:51.878Z,40.75
2023-02-13T04:10:19.152Z,33.67
2023-02-13T04:13:11.030Z,20.70
2023-02-13T04:15:55.591Z,23.17
2023-02-13T04:18:26.401Z,23.00
2023-02-13T04:20:52.294Z,21.90
2023-02-13T04:23:18.811Z,26.73
2023-02-13T04:25:47.916Z,27.63
2023-02-13T04:28:13.987Z,21.75
2023-02-13T04:30:39.963Z,23.67
2023-02-13T04:33:05.911Z,22.83
2023-02-13T04:35:31.727Z,22.75
2023-02-13T04:37:57.590Z,18.42
2023-02-13T04:40:23.630Z,21.35
2023-02-13T04:42:49.698Z,22.98
2023-02-13T04:45:16.222Z,18.92
2023-02-13T04:47:42.182Z,18.02
2023-02-13T04:50:08.625Z,19.77
2023-02-13T04:52:34.454Z,22.75
2023-02-13T04:55:00.300Z,19.15
2023-02-13T04:57:26.080Z,20.20
2023-02-13T04:59:51.940Z,20.58
2023-02-13T05:02:17.802Z,19.40
2023-02-13T05:04:43.749Z,15.63
2023-02-13T05:07:09.664Z,21.10
2023-02-13T05:09:35.438Z,17.35
2023-02-13T05:12:01.329Z,18.65
2023-02-13T05:14:27.329Z,16.60
2023-02-13T05:16:53.231Z,22.35
2023-02-13T05:19:19.598Z,19.65
2023-02-13T05:22:04.619Z,19.77
2023-02-13T05:24:31.016Z,20.20
2023-02-13T05:26:56.891Z,17.38
2023-02-13T05:29:23.076Z,18.40
2023-02-13T05:31:53.037Z,19.13
2023-02-13T05:34:23.391Z,16.38
2023-02-13T05:36:49.826Z,20.90
2023-02-13T05:39:16.158Z,15.55
2023-02-13T05:41:43.426Z,17.63
2023-02-13T05:44:09.362Z,18.13
2023-02-13T05:46:39.066Z,17.58
2023-02-13T05:49:06.067Z,16.73
2023-02-13T05:51:32.273Z,17.02
2023-02-13T05:53:58.212Z,21.75
2023-02-13T05:56:24.439Z,19.75
2023-02-13T05:58:54.181Z,17.30
2023-02-13T06:01:20.996Z,15.35
2023-02-13T06:03:47.106Z,17.83
2023-02-13T06:06:13.346Z,17.85
2023-02-13T06:08:39.289Z,17.15
2023-02-13T06:11:05.209Z,13.88
2023-02-13T06:13:31.272Z,16.92
2023-02-13T06:15:57.274Z,16.02
2023-02-13T06:18:23.155Z,17.42
2023-02-13T06:20:49.137Z,15.57
2023-02-13T06:23:15.548Z,15.38
2023-02-13T06:25:41.416Z,16.38
2023-02-13T06:28:07.445Z,16.90
2023-02-13T06:30:33.524Z,16.23
2023-02-13T06:32:59.870Z,16.40
2023-02-13T06:35:26.167Z,16.30
2023-02-13T06:37:52.206Z,17.40
2023-02-13T06:40:18.429Z,16.65
2023-02-13T06:42:45.005Z,17.92
2023-02-13T06:45:12.066Z,17.15
2023-02-13T06:47:42.909Z,20.52
2023-02-13T06:50:09.558Z,17.40
2023-02-13T06:52:35.480Z,16.90
2023-02-13T06:55:01.660Z,16.42
2023-02-13T06:57:32.206Z,17.48
2023-02-13T07:00:05.131Z,16.63
2023-02-13T07:02:32.183Z,18.25
2023-02-13T07:04:58.261Z,16.60
2023-02-13T07:07:24.207Z,15.77
2023-02-13T07:09:50.333Z,17.77
2023-02-13T07:12:16.326Z,17.30
2023-02-13T07:14:42.191Z,18.00
2023-02-13T07:17:10.324Z,17.52
2023-02-13T07:19:36.175Z,15.60
2023-02-13T07:22:02.098Z,17.05
2023-02-13T07:24:28.034Z,18.48
2023-02-13T07:26:53.949Z,16.73
2023-02-13T07:29:19.854Z,18.92
2023-02-13T07:31:45.717Z,17.85
2023-02-13T07:34:11.662Z,20.13
2023-02-13T07:36:37.498Z,17.83
2023-02-13T07:39:03.504Z,17.40
2023-02-13T07:41:29.325Z,17.92
2023-02-13T07:43:55.258Z,16.00
2023-02-13T07:46:21.278Z,14.30
2023-02-13T07:48:47.313Z,13.82
2023-02-13T07:51:13.505Z,13.50
2023-02-13T07:53:39.303Z,13.40
2023-02-13T07:56:09.438Z,14.85
2023-02-13T07:58:37.460Z,15.15
2023-02-13T08:01:10.179Z,12.88
2023-02-13T08:03:36.797Z,14.13
2023-02-13T08:06:03.355Z,12.75
2023-02-13T08:08:29.254Z,14.00
2023-02-13T08:11:14.038Z,14.93
2023-02-13T08:13:41.151Z,14.70
2023-02-13T08:16:07.118Z,13.00
2023-02-13T08:18:33.052Z,11.95
2023-02-13T08:21:01.727Z,10.90
2023-02-13T08:23:27.603Z,12.00
2023-02-13T08:25:54.987Z,9.88
2023-02-13T08:28:21.655Z,11.00
2023-02-13T08:30:47.573Z,11.18
2023-02-13T08:33:13.402Z,9.98
2023-02-13T08:35:39.207Z,10.23
2023-02-13T08:38:05.325Z,10.50
2023-02-13T08:40:32.218Z,10.50
2023-02-13T08:43:02.727Z,10.15
2023-02-13T08:45:29.072Z,9.95
2023-02-13T08:47:56.931Z,11.05
2023-02-13T08:50:23.442Z,10.15
2023-02-13T08:52:49.267Z,8.73
2023-02-13T08:55:15.369Z,9.27
2023-02-13T08:57:41.302Z,9.32
2023-02-13T09:00:08.329Z,10.07
2023-02-13T09:02:34.259Z,9.18
2023-02-13T09:05:00.131Z,9.15
2023-02-13T09:07:25.979Z,9.32
2023-02-13T09:09:51.800Z,7.45
2023-02-13T09:12:17.753Z,9.45
2023-02-13T09:14:43.644Z,8.30
2023-02-13T09:17:09.611Z,9.32
2023-02-13T09:19:38.194Z,8.00
2023-02-13T09:22:04.016Z,7.38
2023-02-13T09:24:29.936Z,8.88
2023-02-13T09:26:56.001Z,7.63
2023-02-13T09:29:22.055Z,8.43
2023-02-13T09:31:48.150Z,8.52
2023-02-13T09:34:14.194Z,6.70
2023-02-13T09:36:40.162Z,5.93
2023-02-13T09:39:06.104Z,6.55
2023-02-13T09:41:36.188Z,6.10
2023-02-13T09:44:36.812Z,6.95
2023-02-13T09:47:42.199Z,6.53
2023-02-13T09:50:28.953Z,6.72
2023-02-13T09:52:56.470Z,4.85
2023-02-13T09:55:40.326Z,5.60
2023-02-13T09:58:19.946Z,10.80
2023-02-13T10:00:50.971Z,11.30
2023-02-13T10:03:43.655Z,4.88
2023-02-13T10:06:17.853Z,3.38
2023-02-13T10:08:43.627Z,2.35
2023-02-13T10:11:39.981Z,3.88
2023-02-13T10:14:21.488Z,1.40
2023-02-13T10:16:54.920Z,3.10
2023-02-13T10:19:46.150Z,3.20
2023-02-13T10:22:22.836Z,1.35
2023-02-13T10:25:15.546Z,1.40
2023-02-13T10:27:49.251Z,2.03
2023-02-13T10:30:26.223Z,2.10
2023-02-13T10:33:29.789Z,2.88
2023-02-13T10:35:55.870Z,3.88
2023-02-13T10:38:23.006Z,1.95
2023-02-13T10:41:40.268Z,3.58
2023-02-13T10:44:11.747Z,2.67
2023-02-13T10:47:25.436Z,4.35
2023-02-13T10:50:07.457Z,3.15
2023-02-13T10:52:44.946Z,3.03
2023-02-13T10:55:20.152Z,3.85
2023-02-13T10:58:18.205Z,5.53
2023-02-13T11:01:14.433Z,3.03
2023-02-13T11:03:40.431Z,2.47
2023-02-13T11:06:08.667Z,1.70
2023-02-13T11:08:43.610Z,2.17
2023-02-13T11:11:29.667Z,2.80
2023-02-13T11:14:19.990Z,3.30
2023-02-13T11:17:05.358Z,1.85
2023-02-13T11:19:36.043Z,2.38
2023-02-13T11:22:07.423Z,2.08
2023-02-13T11:24:34.915Z,2.17
2023-02-13T11:27:12.892Z,2.97
2023-02-13T11:29:57.904Z,2.30
2023-02-13T11:32:30.025Z,1.67
2023-02-13T11:34:56.099Z,3.42
2023-02-13T11:37:32.218Z,1.50
2023-02-13T11:39:59.955Z,1.45
2023-02-13T11:42:30.683Z,1.55
2023-02-13T11:45:22.787Z,1.75
2023-02-13T11:47:48.854Z,3.22
2023-02-13T11:50:25.367Z,2.17
2023-02-13T11:53:00.134Z,1.55
2023-02-13T11:55:37.634Z,2.55
2023-02-13T11:58:09.543Z,1.85
2023-02-13T12:00:41.847Z,1.33
2023-02-13T12:03:28.751Z,2.30
2023-02-13T12:06:07.768Z,1.60
2023-02-13T12:08:37.507Z,1.83
2023-02-13T12:11:19.886Z,1.67
2023-02-13T12:13:47.181Z,1.80
2023-02-13T12:16:28.394Z,2.97
2023-02-13T12:18:58.613Z,2.85
2023-02-13T12:21:49.730Z,2.00
2023-02-13T12:24:30.855Z,1.95
2023-02-13T12:27:14.523Z,1.58
2023-02-13T12:29:49.740Z,2.65
2023-02-13T12:32:21.600Z,1.88
2023-02-13T12:35:25.582Z,1.38
2023-02-13T12:37:57.030Z,2.35
2023-02-13T12:40:29.544Z,1.20
2023-02-13T12:43:09.831Z,3.28
2023-02-13T12:46:17.307Z,1.83
2023-02-13T12:49:15.422Z,1.50
2023-02-13T12:51:49.854Z,1.15
2023-02-13T12:54:32.490Z,1.27
2023-02-13T12:57:22.479Z,0.63
2023-02-13T12:59:53.378Z,1.15
2023-02-13T13:02:34.144Z,2.85
2023-02-13T13:05:05.704Z,1.27
2023-02-13T13:07:55.760Z,0.77
2023-02-13T13:10:39.375Z,1.02
2023-02-13T13:13:27.118Z,1.37
2023-02-13T13:15:59.062Z,0.75
2023-02-13T13:18:40.074Z,0.68
2023-02-13T13:21:05.948Z,0.60
2023-02-13T13:23:59.586Z,2.25
2023-02-13T13:26:36.552Z,1.02
2023-02-13T13:29:10.176Z,2.22
2023-02-13T13:31:36.947Z,0.52
2023-02-13T13:34:12.524Z,2.13
2023-02-13T13:36:53.856Z,2.05
2023-02-13T13:39:44.943Z,0.38
2023-02-13T13:42:16.376Z,0.80
2023-02-13T13:45:03.909Z,0.60
2023-02-13T13:47:37.334Z,1.83
2023-02-13T13:50:06.260Z,0.40
2023-02-13T13:52:36.720Z,0.47
2023-02-13T13:55:03.889Z,3.00
2023-02-13T13:57:32.714Z,0.65
2023-02-13T14:00:20.505Z,0.47
2023-02-13T14:02:50.656Z,0.93
2023-02-13T14:05:27.396Z,0.70
2023-02-13T14:07:56.654Z,1.58
2023-02-13T14:10:25.177Z,1.98
2023-02-13T14:12:57.160Z,1.10
2023-02-13T14:15:37.955Z,0.75
2023-02-13T14:18:17.676Z,2.25
2023-02-13T14:20:50.917Z,2.80
2023-02-13T14:23:25.676Z,1.20
2023-02-13T14:26:16.371Z,3.45
2023-02-13T14:28:49.349Z,1.77
2023-02-13T14:31:29.049Z,1.35
2023-02-13T14:34:04.667Z,1.10
2023-02-13T14:36:33.710Z,2.08
2023-02-13T14:39:20.304Z,2.58
2023-02-13T14:41:55.074Z,1.30
2023-02-13T14:44:39.424Z,1.67
2023-02-13T14:47:17.801Z,3.42
2023-02-13T14:49:45.134Z,2.13
2023-02-13T14:52:25.570Z,2.95
2023-02-13T14:55:20.542Z,1.20
2023-02-13T14:57:53.585Z,1.50
2023-02-13T15:00:27.610Z,1.40
2023-02-13T15:03:23.232Z,2.30
2023-02-13T15:05:55.746Z,3.72
2023-02-13T15:08:47.940Z,1.95
2023-02-13T15:11:36.210Z,2.03
2023-02-13T15:14:20.535Z,1.33
2023-02-13T15:16:54.916Z,1.48
2023-02-13T15:19:23.047Z,1.85
2023-02-13T15:22:00.784Z,3.78
2023-02-13T15:24:33.954Z,2.65
2023-02-13T15:27:06.590Z,2.60
2023-02-13T15:29:44.236Z,1.60
2023-02-13T15:32:18.542Z,2.10
2023-02-13T15:34:47.553Z,3.30
2023-02-13T15:37:24.638Z,2.60
2023-02-13T15:39:50.666Z,2.85
2023-02-13T15:42:16.596Z,1.35
2023-02-13T15:44:45.532Z,1.60
2023-02-13T15:47:38.811Z,1.30
2023-02-13T15:50:16.834Z,2.28
2023-02-13T15:52:42.948Z,2.92
2023-02-13T15:55:21.837Z,2.08
2023-02-13T15:57:49.180Z,2.38
2023-02-13T16:00:23.719Z,2.15
2023-02-13T16:02:51.775Z,3.25
2023-02-13T16:05:26.536Z,2.15
2023-02-13T16:08:26.003Z,5.82
2023-02-13T16:11:28.378Z,7.88
2023-02-13T16:14:06.453Z,3.65
2023-02-13T16:16:51.056Z,3.03
2023-02-13T16:19:55.631Z,4.35
2023-02-13T16:22:33.445Z,3.15
2023-02-13T16:25:11.089Z,2.85
2023-02-13T16:27:43.651Z,3.13
2023-02-13T16:30:22.774Z,4.47
2023-02-13T16:32:48.722Z,4.97
2023-02-13T16:35:22.454Z,3.55
2023-02-13T16:37:56.893Z,2.33
2023-02-13T16:40:41.427Z,3.10
2023-02-13T16:43:32.169Z,3.60
2023-02-13T16:46:18.457Z,4.75
2023-02-13T16:48:45.735Z,4.78
2023-02-13T16:51:12.689Z,4.80
2023-02-13T16:53:39.601Z,6.97
2023-02-13T16:56:08.609Z,6.65
2023-02-13T16:58:34.996Z,4.30
2023-02-13T17:01:03.609Z,8.07
2023-02-13T17:03:31.416Z,6.72
2023-02-13T17:06:01.622Z,6.70
2023-02-13T17:08:31.721Z,7.13
2023-02-13T17:11:04.919Z,7.07
2023-02-13T17:13:32.555Z,8.70
2023-02-13T17:15:59.464Z,7.32
2023-02-13T17:18:28.356Z,7.97
2023-02-13T17:20:54.450Z,5.28
2023-02-13T17:23:23.119Z,10.60
2023-02-13T17:25:50.638Z,5.03
2023-02-13T17:28:20.333Z,5.55
2023-02-13T17:30:48.456Z,5.78
2023-02-13T17:33:19.439Z,10.52
2023-02-13T17:35:45.318Z,5.53
2023-02-13T17:38:11.299Z,3.85
2023-02-13T17:40:37.765Z,5.65
2023-02-13T17:43:03.747Z,4.95
2023-02-13T17:45:31.673Z,3.88
2023-02-13T17:47:58.077Z,10.15
2023-02-13T17:50:26.013Z,8.73
2023-02-13T17:52:52.187Z,6.28
2023-02-13T17:55:24.850Z,4.35
2023-02-13T17:57:52.194Z,8.10
2023-02-13T18:00:20.151Z,5.93
2023-02-13T18:02:48.306Z,6.03
2023-02-13T18:05:15.938Z,5.95
2023-02-13T18:07:42.574Z,3.95
2023-02-13T18:10:16.289Z,7.03
2023-02-13T18:12:43.198Z,6.82
2023-02-13T18:15:10.150Z,6.32
2023-02-13T18:17:37.174Z,3.83
2023-02-13T18:20:07.419Z,6.00
2023-02-13T18:22:33.649Z,4.38
2023-02-13T18:25:01.177Z,3.20
2023-02-13T18:27:27.576Z,6.78
2023-02-13T18:29:55.381Z,3.72
2023-02-13T18:32:22.240Z,5.32
2023-02-13T18:34:49.703Z,6.78
2023-02-13T18:37:16.901Z,3.20
2023-02-13T18:39:43.857Z,6.75
2023-02-13T18:42:12.567Z,3.83
2023-02-13T18:44:39.438Z,3.22
2023-02-13T18:47:05.425Z,3.45
2023-02-13T18:49:31.466Z,4.65
2023-02-13T18:51:57.737Z,4.57
2023-02-13T18:54:24.117Z,4.35
2023-02-13T18:56:50.519Z,6.80
2023-02-13T18:59:17.848Z,4.00
2023-02-13T19:01:44.354Z,4.35
2023-02-13T19:04:10.952Z,6.07
2023-02-13T19:06:41.889Z,5.75
2023-02-13T19:09:08.604Z,4.13
2023-02-13T19:11:35.019Z,4.72
2023-02-13T19:14:01.769Z,2.78
2023-02-13T19:16:33.206Z,3.03
2023-02-13T19:19:01.652Z,3.45
2023-02-13T19:21:29.457Z,4.72
2023-02-13T19:23:55.314Z,3.63
2023-02-13T19:26:23.647Z,7.97
2023-02-13T19:28:50.323Z,5.57
2023-02-13T19:31:25.214Z,5.00
2023-02-13T19:33:51.777Z,4.50
2023-02-13T19:36:23.182Z,5.97
2023-02-13T19:39:03.977Z,5.00
2023-02-13T19:41:30.455Z,4.25
2023-02-13T19:43:56.738Z,4.38
2023-02-13T19:46:25.424Z,3.53
2023-02-13T19:48:52.099Z,5.30
2023-02-13T19:51:20.811Z,5.20
2023-02-13T19:53:47.262Z,7.10
2023-02-13T19:56:14.034Z,5.35
2023-02-13T19:58:41.690Z,6.45
2023-02-13T20:01:07.650Z,6.38
2023-02-13T20:03:33.546Z,5.47
2023-02-13T20:06:04.840Z,7.80
2023-02-13T20:08:30.830Z,7.18
2023-02-13T20:10:57.167Z,7.28
2023-02-13T20:13:23.255Z,6.57
2023-02-13T20:15:49.275Z,9.90
2023-02-13T20:18:19.329Z,10.93
2023-02-13T20:20:46.868Z,9.13
2023-02-13T20:23:12.915Z,7.35
2023-02-13T20:25:39.000Z,10.48
2023-02-13T20:28:04.962Z,8.55
2023-02-13T20:30:31.004Z,8.40
2023-02-13T20:32:57.443Z,8.48
2023-02-13T20:35:23.556Z,7.05
2023-02-13T20:37:49.434Z,8.75
2023-02-13T20:40:15.371Z,8.43
2023-02-13T20:42:41.458Z,10.65
2023-02-13T20:45:07.731Z,9.15
2023-02-13T20:47:33.591Z,10.88
2023-02-13T20:49:59.594Z,11.05
2023-02-13T20:52:25.745Z,10.07
2023-02-13T20:54:51.922Z,8.50
2023-02-13T20:57:17.882Z,13.25
2023-02-13T20:59:44.301Z,7.65
2023-02-13T21:02:11.729Z,8.45
2023-02-13T21:04:37.673Z,6.45
2023-02-13T21:07:08.375Z,8.57
2023-02-13T21:09:35.834Z,7.78
2023-02-13T21:12:02.317Z,7.75
2023-02-13T21:14:28.356Z,8.23
2023-02-13T21:16:54.353Z,6.68
2023-02-13T21:19:20.385Z,6.70
2023-02-13T21:21:46.786Z,8.65
2023-02-13T21:24:16.960Z,6.00
2023-02-13T21:26:44.256Z,7.95
2023-02-13T21:29:10.488Z,6.18
2023-02-13T21:31:39.925Z,5.45
2023-02-13T21:34:08.146Z,6.13
2023-02-13T21:36:37.380Z,5.75
2023-02-13T21:39:05.440Z,5.82
2023-02-13T21:41:31.410Z,6.90
2023-02-13T21:43:58.224Z,7.00
2023-02-13T21:46:29.234Z,9.02
2023-02-13T21:49:06.421Z,7.43
2023-02-13T21:51:34.969Z,8.20
2023-02-13T21:54:02.151Z,7.75
2023-02-13T21:56:35.041Z,6.78
2023-02-13T21:59:01.478Z,5.95
2023-02-13T22:01:29.926Z,7.40
2023-02-13T22:04:00.348Z,5.65
2023-02-13T22:06:28.215Z,6.03
2023-02-13T22:08:59.182Z,6.50
2023-02-13T22:11:25.585Z,6.78
2023-02-13T22:13:56.599Z,7.28
2023-02-13T22:16:23.265Z,6.75
2023-02-13T22:18:49.984Z,8.27
2023-02-13T22:21:19.509Z,11.50
2023-02-13T22:23:46.458Z,6.53
2023-02-13T22:26:37.193Z,8.15
2023-02-13T22:29:14.904Z,8.15
2023-02-13T22:31:41.254Z,7.97
2023-02-13T22:34:07.384Z,6.20
2023-02-13T22:36:38.140Z,9.13
2023-02-13T22:39:04.156Z,10.35
2023-02-13T22:41:30.104Z,10.02
2023-02-13T22:43:56.720Z,6.60
2023-02-13T22:46:25.008Z,7.28
2023-02-13T22:48:51.740Z,6.22
2023-02-13T22:51:20.236Z,7.35
2023-02-13T22:53:47.704Z,6.65
2023-02-13T22:56:13.761Z,6.72
2023-02-13T22:58:39.908Z,9.57
2023-02-13T23:01:11.939Z,7.80
2023-02-13T23:03:38.777Z,7.60
2023-02-13T23:06:05.622Z,6.88
2023-02-13T23:08:31.604Z,7.40
2023-02-13T23:11:16.164Z,8.93
2023-02-13T23:13:44.044Z,7.07
2023-02-13T23:16:13.590Z,8.13
2023-02-13T23:18:40.225Z,7.13
2023-02-13T23:21:07.554Z,9.00
2023-02-13T23:23:37.830Z,11.38
2023-02-13T23:26:05.356Z,8.25
2023-02-13T23:28:31.349Z,8.38
2023-02-13T23:30:57.636Z,8.68
2023-02-13T23:33:23.608Z,7.53
2023-02-13T23:35:49.419Z,9.00
2023-02-13T23:38:15.283Z,7.85
2023-02-13T23:40:41.125Z,6.25
2023-02-13T23:43:07.178Z,10.02
2023-02-13T23:45:33.030Z,8.30
2023-02-13T23:47:58.798Z,6.47
2023-02-13T23:50:24.652Z,6.28
2023-02-13T23:52:50.516Z,6.90
2023-02-13T23:55:16.652Z,6.35
2023-02-13T23:57:42.910Z,5.80
